Time;durP1;ratioP1;P1;durP2;ratioP2;P2;SDS_P1;SDS_P2;PMS_P1;PMS_P2;Temp;Humidity;BMP_temperature;BMP_pressure;BME280_temperature;BME280_humidity;BME280_pressure;Samples;Min_cycle;Max_cycle;Signal;HPM_P1;HPM_P2
2023/02/25 00:01:43;;;;;;;17.73;3.45;;;;;;;2.70;100.00;100557.59;5128720;27;20043;-49
2023/02/25 00:04:32;;;;;;;18.98;3.55;;;;;;;2.67;100.00;100568.06;5128861;27;20118;-49
2023/02/25 00:07:00;;;;;;;19.08;3.80;;;;;;;2.61;100.00;100563.94;5130467;27;20042;-47
2023/02/25 00:09:29;;;;;;;15.48;2.90;;;;;;;2.66;100.00;100581.97;5133628;27;20051;-48
2023/02/25 00:11:57;;;;;;;19.02;2.38;;;;;;;2.64;100.00;100570.78;5133788;27;20039;-49
2023/02/25 00:14:25;;;;;;;14.75;2.10;;;;;;;2.56;100.00;100565.84;5132581;28;20039;-50
2023/02/25 00:16:54;;;;;;;17.08;3.42;;;;;;;2.61;100.00;100565.72;5130422;27;20099;-51
2023/02/25 00:19:23;;;;;;;11.88;2.47;;;;;;;2.50;100.00;100559.13;5129513;28;20058;-51
2023/02/25 00:21:52;;;;;;;15.35;2.60;;;;;;;2.49;100.00;100561.81;5128820;28;20045;-51
2023/02/25 00:24:20;;;;;;;16.08;2.70;;;;;;;2.48;100.00;100555.78;5129874;27;20061;-51
2023/02/25 00:26:49;;;;;;;16.65;2.40;;;;;;;2.45;100.00;100566.25;5130673;27;20075;-53
2023/02/25 00:29:17;;;;;;;11.90;2.47;;;;;;;2.41;100.00;100564.66;5130064;27;20047;-49
2023/02/25 00:31:48;;;;;;;15.00;2.58;;;;;;;2.41;100.00;100567.25;5129992;27;20063;-52
2023/02/25 00:34:17;;;;;;;22.20;3.38;;;;;;;2.41;100.00;100563.81;5129437;27;20067;-48
2023/02/25 00:36:45;;;;;;;17.15;2.17;;;;;;;2.47;100.00;100546.28;5128700;27;20070;-52
2023/02/25 00:39:18;;;;;;;17.65;2.22;;;;;;;2.45;100.00;100560.22;5129585;27;20053;-48
2023/02/25 00:41:46;;;;;;;14.75;2.60;;;;;;;2.43;100.00;100560.28;5128223;28;20086;-48
2023/02/25 00:44:14;;;;;;;18.35;3.22;;;;;;;2.43;100.00;100562.03;5133623;27;20039;-48
2023/02/25 00:46:42;;;;;;;14.48;2.30;;;;;;;2.44;100.00;100574.97;5133642;28;20111;-49
2023/02/25 00:49:10;;;;;;;16.88;2.92;;;;;;;2.43;100.00;100569.81;5130281;28;20074;-48
2023/02/25 00:51:48;;;;;;;17.60;2.30;;;;;;;2.45;100.00;100568.84;5128873;28;20035;-48
2023/02/25 00:54:20;;;;;;;16.25;2.92;;;;;;;2.44;100.00;100574.09;5132586;27;20066;-49
2023/02/25 00:56:48;;;;;;;20.48;2.78;;;;;;;2.46;100.00;100570.53;5130105;27;20922;-48
2023/02/25 00:59:16;;;;;;;17.70;2.20;;;;;;;2.45;100.00;100571.44;5130896;27;20043;-48
2023/02/25 01:01:44;;;;;;;17.73;3.20;;;;;;;2.48;100.00;100576.53;5131012;27;20363;-49
2023/02/25 01:04:13;;;;;;;12.90;2.50;;;;;;;2.47;100.00;100576.59;5128180;28;20051;-50
2023/02/25 01:06:41;;;;;;;22.23;3.00;;;;;;;2.47;100.00;100580.03;5128174;28;20047;-49
2023/02/25 01:09:12;;;;;;;18.40;3.00;;;;;;;2.42;100.00;100587.13;5128880;28;20043;-48
2023/02/25 01:11:44;;;;;;;11.77;2.20;;;;;;;2.46;100.00;100580.94;5129105;28;20055;-50
2023/02/25 01:14:14;;;;;;;16.33;2.38;;;;;;;2.46;100.00;100580.94;5135151;27;20051;-48
2023/02/25 01:16:44;;;;;;;18.27;2.90;;;;;;;2.42;100.00;100575.91;5134145;27;20097;-47
2023/02/25 01:19:15;;;;;;;14.98;2.72;;;;;;;2.43;100.00;100575.84;5133451;27;20525;-49
2023/02/25 01:21:44;;;;;;;14.15;2.20;;;;;;;2.36;100.00;100583.00;5131504;27;20104;-50
2023/02/25 01:24:15;;;;;;;18.77;2.72;;;;;;;2.36;100.00;100571.78;5132903;27;20047;-48
2023/02/25 01:26:46;;;;;;;17.00;2.45;;;;;;;2.36;100.00;100572.63;5133021;27;20100;-49
2023/02/25 01:29:16;;;;;;;12.63;2.55;;;;;;;2.32;100.00;100576.22;5133085;27;20133;-49
2023/02/25 01:31:45;;;;;;;14.13;2.15;;;;;;;2.30;100.00;100572.00;5132772;27;20499;-48
2023/02/25 01:34:16;;;;;;;12.80;3.08;;;;;;;2.28;100.00;100568.63;5133162;27;20047;-53
2023/02/25 01:36:45;;;;;;;9.25;2.53;;;;;;;2.24;100.00;100561.84;5131171;27;20035;-47
2023/02/25 01:39:14;;;;;;;13.00;2.85;;;;;;;2.23;100.00;100575.72;5132537;27;20049;-52
2023/02/25 01:41:47;;;;;;;15.52;2.17;;;;;;;2.22;100.00;100567.06;5132669;27;20047;-51
2023/02/25 01:44:18;;;;;;;16.45;2.40;;;;;;;2.26;100.00;100570.41;5133171;27;20122;-52
2023/02/25 01:46:47;;;;;;;12.63;1.60;;;;;;;2.23;100.00;100575.72;5132500;27;20035;-52
2023/02/25 01:49:20;;;;;;;14.05;2.58;;;;;;;2.25;100.00;100564.38;5132619;27;20050;-50
2023/02/25 01:51:51;;;;;;;14.98;1.65;;;;;;;2.24;100.00;100564.44;5133567;27;20031;-52
2023/02/25 01:54:20;;;;;;;16.30;2.42;;;;;;;2.22;100.00;100579.19;5136039;27;20482;-54
2023/02/25 01:56:54;;;;;;;9.93;1.95;;;;;;;2.22;100.00;100582.63;5133143;27;20520;-52
2023/02/25 01:59:26;;;;;;;9.00;1.27;;;;;;;2.22;100.00;100579.19;5132851;27;20440;-51
2023/02/25 02:01:55;;;;;;;9.50;2.03;;;;;;;2.22;100.00;100584.38;5132312;27;20054;-46
2023/02/25 02:04:25;;;;;;;9.10;2.08;;;;;;;2.22;100.00;100581.78;5131525;27;20572;-48
2023/02/25 02:06:55;;;;;;;11.40;1.95;;;;;;;2.20;100.00;100590.47;5131222;27;20065;-49
2023/02/25 02:09:26;;;;;;;10.90;1.95;;;;;;;2.25;100.00;100600.72;5132307;27;20035;-47
2023/02/25 02:11:59;;;;;;;14.88;2.20;;;;;;;2.26;100.00;100606.72;5135254;27;20058;-48
2023/02/25 02:14:31;;;;;;;10.32;1.70;;;;;;;2.27;100.00;100598.06;5131789;27;20035;-46
2023/02/25 02:17:16;;;;;;;10.20;1.30;;;;;;;2.32;100.00;100593.56;5132271;27;20043;-49
2023/02/25 02:20:12;;;;;;;11.93;1.55;;;;;;;2.33;100.00;100587.44;5130762;27;20051;-48
2023/02/25 02:22:56;;;;;;;10.10;1.30;;;;;;;2.27;100.00;100588.50;5132521;27;20431;-50
2023/02/25 02:26:03;;;;;;;10.25;1.55;;;;;;;2.29;100.00;100586.72;5132723;27;20069;-49
2023/02/25 02:29:06;;;;;;;12.23;1.85;;;;;;;2.30;100.00;100590.16;5091505;27;20107;-49
2023/02/25 02:31:48;;;;;;;9.48;1.73;;;;;;;2.32;100.00;100588.38;5133415;27;20039;-51
2023/02/25 02:34:29;;;;;;;11.33;1.87;;;;;;;2.32;100.00;100591.78;5130934;27;20046;-48
2023/02/25 02:37:09;;;;;;;9.73;1.80;;;;;;;2.36;100.00;100592.56;5130926;27;20058;-47
2023/02/25 02:39:49;;;;;;;10.05;1.58;;;;;;;2.41;100.00;100585.44;5133352;27;20054;-48
2023/02/25 02:42:27;;;;;;;11.68;1.95;;;;;;;2.40;100.00;100583.75;5133942;27;20047;-50
2023/02/25 02:45:02;;;;;;;16.33;3.00;;;;;;;2.43;100.00;100583.63;5131705;27;20043;-49
2023/02/25 02:47:35;;;;;;;15.00;2.15;;;;;;;2.43;100.00;100573.25;5132419;27;20055;-50
2023/02/25 02:50:07;;;;;;;8.48;1.40;;;;;;;2.47;100.00;100571.41;5135086;27;20043;-48
2023/02/25 02:52:39;;;;;;;18.30;1.90;;;;;;;2.43;100.00;100573.25;5132055;27;20378;-51
2023/02/25 02:55:21;;;;;;;11.40;1.80;;;;;;;2.49;100.00;100573.03;5131127;27;20116;-50
2023/02/25 02:57:52;;;;;;;14.32;2.80;;;;;;;2.52;100.00;100565.16;5131420;27;20378;-49
2023/02/25 03:00:24;;;;;;;15.88;2.58;;;;;;;2.59;100.00;100576.16;5130977;27;20050;-48
2023/02/25 03:02:58;;;;;;;22.70;2.83;;;;;;;2.54;100.00;100571.13;5131298;27;20100;-48
2023/02/25 03:05:29;;;;;;;12.38;2.25;;;;;;;2.52;100.00;100572.94;5129423;27;20039;-48
2023/02/25 03:08:06;;;;;;;13.63;2.58;;;;;;;2.53;100.00;100572.00;5130827;27;20112;-51
2023/02/25 03:10:35;;;;;;;13.48;2.65;;;;;;;2.61;100.00;100578.69;5131190;27;20450;-50
2023/02/25 03:13:03;;;;;;;14.27;1.95;;;;;;;2.57;100.00;100572.75;5131183;27;20042;-52
2023/02/25 03:15:33;;;;;;;18.20;2.30;;;;;;;2.63;100.00;100582.06;5130167;27;20051;-51
2023/02/25 03:18:06;;;;;;;13.88;2.17;;;;;;;2.63;100.00;100579.47;5131056;27;20518;-52
2023/02/25 03:20:40;;;;;;;10.23;1.38;;;;;;;2.61;100.00;100591.69;5129625;27;20501;-53
2023/02/25 03:23:12;;;;;;;12.82;2.45;;;;;;;2.61;100.00;100584.72;5132929;27;20045;-53
2023/02/25 03:25:46;;;;;;;18.90;2.30;;;;;;;2.64;100.00;100587.19;5131030;27;20108;-59
2023/02/25 03:28:24;;;;;;;16.63;2.28;;;;;;;2.65;100.00;100593.25;5133701;27;20051;-59
2023/02/25 03:30:58;;;;;;;14.88;2.05;;;;;;;2.68;100.00;100598.34;5131707;27;20108;-59
2023/02/25 03:33:32;;;;;;;13.60;1.83;;;;;;;2.66;100.00;100594.97;5131660;27;20031;-59
2023/02/25 03:36:07;;;;;;;16.67;2.33;;;;;;;2.71;100.00;100593.03;5131651;27;20047;-59
2023/02/25 03:38:41;;;;;;;13.35;2.40;;;;;;;2.72;100.00;100597.31;5132530;27;20043;-59
2023/02/25 03:41:11;;;;;;;13.82;2.40;;;;;;;2.70;100.00;100594.78;5131967;27;20043;-59
2023/02/25 03:43:44;;;;;;;24.35;3.10;;;;;;;2.71;100.00;100600.81;5131941;27;20039;-59
2023/02/25 03:46:14;;;;;;;16.42;2.85;;;;;;;2.68;100.00;100598.34;5132027;27;20512;-59
2023/02/25 03:48:45;;;;;;;16.90;2.70;;;;;;;2.65;100.00;100598.44;5132292;27;20440;-59
2023/02/25 03:51:21;;;;;;;14.68;1.88;;;;;;;2.64;100.00;100597.59;5130608;27;20047;-59
2023/02/25 03:53:50;;;;;;;17.77;2.08;;;;;;;2.62;100.00;100599.41;5131365;27;20035;-59
2023/02/25 03:56:21;;;;;;;11.90;2.95;;;;;;;2.56;100.00;100609.16;5131945;27;20134;-59
2023/02/25 03:58:49;;;;;;;20.27;2.63;;;;;;;2.58;100.00;100612.53;5131212;27;20058;-59
2023/02/25 04:01:22;;;;;;;21.90;2.58;;;;;;;2.51;100.00;100611.94;5130590;27;20047;-59
2023/02/25 04:03:52;;;;;;;16.65;2.80;;;;;;;2.52;100.00;100622.25;5130826;27;20495;-59
2023/02/25 04:06:21;;;;;;;15.75;2.30;;;;;;;2.48;100.00;100625.00;5130799;28;20126;-59
2023/02/25 04:08:50;;;;;;;18.42;2.22;;;;;;;2.47;100.00;100615.53;5131016;27;20040;-59
2023/02/25 04:11:18;;;;;;;15.93;2.15;;;;;;;2.47;100.00;100612.94;5131927;27;20031;-59
2023/02/25 04:13:46;;;;;;;13.45;2.22;;;;;;;2.47;100.00;100625.94;5131542;27;20595;-59
2023/02/25 04:16:14;;;;;;;14.13;2.70;;;;;;;2.47;100.00;100633.72;5131192;27;20547;-58
2023/02/25 04:18:42;;;;;;;18.42;2.97;;;;;;;2.48;100.00;100637.97;5133574;28;20066;-58
2023/02/25 04:21:26;;;;;;;16.90;2.45;;;;;;;2.45;100.00;100625.94;5132777;28;20066;-58
2023/02/25 04:23:54;;;;;;;16.02;1.98;;;;;;;2.42;100.00;100620.88;5133468;28;20066;-59
2023/02/25 04:26:22;;;;;;;21.00;2.65;;;;;;;2.42;100.00;100617.44;5131327;27;20142;-59
2023/02/25 04:28:51;;;;;;;16.63;2.47;;;;;;;2.40;100.00;100619.22;5132304;27;20051;-58
2023/02/25 04:31:19;;;;;;;14.63;2.10;;;;;;;2.39;100.00;100625.31;5133923;27;20505;-58
2023/02/25 04:33:48;;;;;;;17.30;2.45;;;;;;;2.38;100.00;100629.66;5131786;28;20039;-58
2023/02/25 04:36:26;;;;;;;19.52;3.20;;;;;;;2.42;100.00;100628.66;5131645;27;20047;-58
2023/02/25 04:38:55;;;;;;;23.00;2.85;;;;;;;2.37;100.00;100633.16;5132056;28;20053;-57
2023/02/25 04:41:24;;;;;;;14.75;2.05;;;;;;;2.38;100.00;100641.81;5131939;27;20040;-57
2023/02/25 04:43:52;;;;;;;14.55;2.13;;;;;;;2.37;100.00;100640.94;5132048;28;20035;-57
2023/02/25 04:46:20;;;;;;;17.77;1.90;;;;;;;2.38;100.00;100644.41;5131412;28;20517;-58
2023/02/25 04:48:49;;;;;;;19.38;2.80;;;;;;;2.37;100.00;100651.31;5134699;27;20043;-58
2023/02/25 04:51:18;;;;;;;9.95;1.60;;;;;;;2.39;100.00;100643.47;5134176;27;20050;-58
2023/02/25 04:53:50;;;;;;;18.00;2.72;;;;;;;2.39;100.00;100654.72;5134697;27;20039;-58
2023/02/25 04:56:18;;;;;;;16.25;2.95;;;;;;;2.40;100.00;100651.25;5134919;27;20046;-58
2023/02/25 04:58:47;;;;;;;18.45;2.15;;;;;;;2.41;100.00;100655.50;5135025;27;20138;-58
2023/02/25 05:01:15;;;;;;;19.17;3.33;;;;;;;2.45;100.00;100641.53;5134909;27;20100;-57
2023/02/25 05:03:43;;;;;;;12.27;1.85;;;;;;;2.40;100.00;100646.06;5136192;27;20043;-58
2023/02/25 05:06:11;;;;;;;20.67;2.35;;;;;;;2.40;100.00;100637.41;5136962;27;20053;-58
2023/02/25 05:08:39;;;;;;;15.98;2.50;;;;;;;2.38;100.00;100647.00;5137155;27;20039;-57
2023/02/25 05:11:09;;;;;;;18.08;2.85;;;;;;;2.40;100.00;100640.88;5134984;27;20043;-59
2023/02/25 05:13:37;;;;;;;16.30;2.55;;;;;;;2.40;100.00;100638.25;5135152;27;20573;-58
2023/02/25 05:16:07;;;;;;;19.48;3.85;;;;;;;2.40;100.00;100645.19;5133268;27;20074;-58
2023/02/25 05:18:37;;;;;;;11.88;2.80;;;;;;;2.40;100.00;100650.38;5136696;27;20051;-58
2023/02/25 05:21:10;;;;;;;16.55;2.40;;;;;;;2.36;100.00;100649.66;5134165;27;20047;-58
2023/02/25 05:23:39;;;;;;;18.40;2.67;;;;;;;2.32;100.00;100642.88;5134050;27;20049;-58
2023/02/25 05:26:09;;;;;;;15.65;2.83;;;;;;;2.29;100.00;100642.94;5134111;27;20445;-58
2023/02/25 05:28:37;;;;;;;12.70;2.75;;;;;;;2.31;100.00;100644.59;5134675;27;20050;-58
2023/02/25 05:31:06;;;;;;;18.27;2.80;;;;;;;2.34;100.00;100646.25;5134653;27;20789;-58
2023/02/25 05:33:38;;;;;;;12.45;2.63;;;;;;;2.36;100.00;100647.06;5134502;27;20517;-58
2023/02/25 05:36:06;;;;;;;14.43;4.07;;;;;;;2.39;100.00;100657.34;5134269;27;20401;-58
2023/02/25 05:38:35;;;;;;;19.98;3.20;;;;;;;2.35;100.00;100663.53;5135652;27;20485;-58
2023/02/25 05:41:05;;;;;;;15.52;2.38;;;;;;;2.36;100.00;100666.06;5136552;27;20046;-58
2023/02/25 05:43:36;;;;;;;15.02;2.58;;;;;;;2.34;100.00;100656.63;5136517;27;20035;-58
2023/02/25 05:46:10;;;;;;;18.13;2.65;;;;;;;2.30;100.00;100665.41;5135164;27;20133;-58
2023/02/25 05:48:39;;;;;;;19.15;2.83;;;;;;;2.30;100.00;100662.81;5134332;27;20096;-58
2023/02/25 05:51:12;;;;;;;17.38;2.53;;;;;;;2.29;100.00;100668.91;5132928;27;20057;-58
2023/02/25 05:53:40;;;;;;;17.55;2.35;;;;;;;2.29;100.00;100666.31;5133788;27;20038;-58
2023/02/25 05:56:12;;;;;;;17.60;3.88;;;;;;;2.27;100.00;100660.34;5133846;27;20066;-58
2023/02/25 05:58:41;;;;;;;13.38;1.83;;;;;;;2.25;100.00;100660.41;5132942;27;20522;-57
2023/02/25 06:01:11;;;;;;;12.40;2.67;;;;;;;2.27;100.00;100655.16;5133673;27;20537;-58
2023/02/25 06:03:40;;;;;;;15.10;1.73;;;;;;;2.26;100.00;100653.44;5133718;27;20039;-58
2023/02/25 06:06:11;;;;;;;14.63;2.90;;;;;;;2.27;100.00;100666.38;5132928;27;20047;-58
2023/02/25 06:08:40;;;;;;;13.45;3.08;;;;;;;2.28;100.00;100664.63;5133295;27;20497;-57
2023/02/25 06:11:08;;;;;;;20.25;2.33;;;;;;;2.25;100.00;100677.69;5135834;27;20129;-58
2023/02/25 06:13:41;;;;;;;16.88;2.20;;;;;;;2.26;100.00;100671.63;5135636;27;20046;-58
2023/02/25 06:16:09;;;;;;;10.05;1.60;;;;;;;2.24;100.00;100665.66;5135580;27;20096;-58
2023/02/25 06:18:38;;;;;;;16.65;2.53;;;;;;;2.25;100.00;100678.56;5134595;27;20532;-58
2023/02/25 06:21:08;;;;;;;12.27;1.80;;;;;;;2.23;100.00;100689.88;5133030;27;20777;-58
2023/02/25 06:23:38;;;;;;;15.02;2.33;;;;;;;2.27;100.00;100686.28;5135079;27;20038;-58
2023/02/25 06:26:07;;;;;;;16.65;2.20;;;;;;;2.29;100.00;100684.47;5134034;27;20070;-58
2023/02/25 06:28:38;;;;;;;;;;;;;;;2.34;100.00;100685.19;5134885;27;20478;-58
2023/02/25 06:31:09;;;;;;;12.98;2.00;;;;;;;2.29;100.00;100687.06;5134242;27;19919;-58
2023/02/25 06:33:38;;;;;;;9.73;1.67;;;;;;;2.33;100.00;100697.31;5133073;27;20411;-58
2023/02/25 06:36:07;;;;;;;16.73;2.20;;;;;;;2.31;100.00;100701.69;5133632;27;20043;-58
2023/02/25 06:38:36;;;;;;;21.25;2.63;;;;;;;2.29;100.00;100698.31;5132815;27;20031;-58
2023/02/25 06:41:06;;;;;;;19.40;2.70;;;;;;;2.33;100.00;100696.47;5133591;27;20047;-58
2023/02/25 06:43:35;;;;;;;15.52;2.75;;;;;;;2.32;100.00;100712.94;5132583;27;20051;-57
2023/02/25 06:46:10;;;;;;;20.98;2.25;;;;;;;2.32;100.00;100702.56;5131872;27;20039;-58
2023/02/25 06:48:39;;;;;;;14.60;2.80;;;;;;;2.34;100.00;100708.53;5131829;27;20060;-58
2023/02/25 06:51:08;;;;;;;14.70;2.05;;;;;;;2.31;100.00;100709.50;5131514;27;20051;-58
2023/02/25 06:53:37;;;;;;;19.17;2.20;;;;;;;2.29;100.00;100715.63;5133277;27;20131;-58
2023/02/25 06:56:07;;;;;;;13.68;3.22;;;;;;;2.28;100.00;100725.16;5130674;27;20053;-58
2023/02/25 06:58:35;;;;;;;15.13;2.10;;;;;;;2.30;100.00;100732.91;5135511;27;20565;-58
2023/02/25 07:01:06;;;;;;;14.35;2.80;;;;;;;2.32;100.00;100731.13;5130380;27;20486;-57
2023/02/25 07:03:36;;;;;;;13.48;2.08;;;;;;;2.32;100.00;100726.75;5131872;27;20367;-57
2023/02/25 07:06:04;;;;;;;14.65;2.33;;;;;;;2.35;100.00;100731.00;5131552;27;20046;-57
2023/02/25 07:08:33;;;;;;;13.75;2.97;;;;;;;2.42;100.00;100729.06;5132725;27;20076;-58
2023/02/25 07:11:11;;;;;;;17.20;2.38;;;;;;;2.42;100.00;100737.69;5127266;27;20517;-58
2023/02/25 07:13:42;;;;;;;18.80;2.47;;;;;;;2.42;100.00;100740.28;5111109;28;20043;-50
2023/02/25 07:16:11;;;;;;;12.10;2.00;;;;;;;2.41;100.00;100748.13;5110218;28;20600;-49
2023/02/25 07:18:40;;;;;;;11.68;2.10;;;;;;;2.42;100.00;100742.88;5124064;27;20047;-50
2023/02/25 07:21:11;;;;;;;15.90;2.63;;;;;;;2.44;100.00;100748.03;5117877;27;20055;-52
2023/02/25 07:23:39;;;;;;;12.27;2.00;;;;;;;2.48;100.00;100747.03;5113191;27;20097;-50
2023/02/25 07:26:08;;;;;;;16.85;2.63;;;;;;;2.47;100.00;100753.13;5120509;27;20731;-58
2023/02/25 07:28:40;;;;;;;13.27;2.40;;;;;;;2.49;100.00;100759.09;5132064;27;20439;-58
2023/02/25 07:31:11;;;;;;;7.25;1.70;;;;;;;2.52;100.00;100762.47;5126633;27;20047;-58
2023/02/25 07:33:41;;;;;;;10.15;1.88;;;;;;;2.54;100.00;100758.06;5132437;27;20062;-58
2023/02/25 07:36:09;;;;;;;9.40;2.13;;;;;;;2.58;100.00;100764.00;5130068;27;20108;-59
2023/02/25 07:38:38;;;;;;;11.10;1.80;;;;;;;2.58;100.00;100768.34;5132965;27;20043;-48
2023/02/25 07:41:07;;;;;;;13.40;1.98;;;;;;;2.62;100.00;100769.91;5131671;27;20071;-49
2023/02/25 07:43:35;;;;;;;14.38;2.42;;;;;;;2.73;100.00;100766.97;5131724;27;20435;-47
2023/02/25 07:46:04;;;;;;;12.07;1.60;;;;;;;2.69;100.00;100777.47;5117842;27;20047;-48
2023/02/25 07:48:33;;;;;;;12.65;2.33;;;;;;;2.72;100.00;100776.53;5109972;28;20047;-51
2023/02/25 07:51:07;;;;;;;13.48;3.72;;;;;;;2.73;100.00;100783.44;5129111;27;20070;-50
2023/02/25 07:53:35;;;;;;;8.68;1.77;;;;;;;2.79;100.00;100783.19;5130706;27;20046;-46
2023/02/25 07:56:05;;;;;;;13.75;1.90;;;;;;;2.81;100.00;100783.16;5130940;27;20482;-47
2023/02/25 07:58:34;;;;;;;11.60;2.22;;;;;;;2.85;100.00;100776.94;5134077;27;20051;-48
2023/02/25 08:01:07;;;;;;;12.13;2.38;;;;;;;2.92;100.00;100787.97;5133755;27;20040;-49
2023/02/25 08:03:36;;;;;;;10.75;2.05;;;;;;;3.02;100.00;100786.78;5111641;27;20048;-47
2023/02/25 08:06:08;;;;;;;11.10;1.73;;;;;;;3.05;100.00;100789.25;5108166;28;20093;-48
2023/02/25 08:08:37;;;;;;;11.10;1.98;;;;;;;3.08;100.00;100796.97;5125128;27;20035;-47
2023/02/25 08:11:06;;;;;;;12.30;1.88;;;;;;;3.08;100.00;100791.78;5122039;28;20062;-49
2023/02/25 08:13:34;;;;;;;14.07;2.60;;;;;;;3.18;100.00;100792.28;5131321;28;20062;-47
2023/02/25 08:16:04;;;;;;;8.80;2.03;;;;;;;3.14;100.00;100799.34;5129839;28;20450;-48
2023/02/25 08:18:32;;;;;;;7.35;1.58;;;;;;;3.21;100.00;100798.22;5126622;28;20039;-49
2023/02/25 08:21:00;;;;;;;13.77;1.50;;;;;;;3.31;100.00;100801.38;5131379;27;20050;-47
2023/02/25 08:23:31;;;;;;;18.05;2.53;;;;;;;3.30;100.00;100804.00;5130409;27;20498;-50
2023/02/25 08:26:00;;;;;;;12.35;2.25;;;;;;;3.33;100.00;100804.75;5115313;27;20437;-47
2023/02/25 08:28:30;;;;;;;13.55;3.28;;;;;;;3.40;100.00;100809.75;5120804;27;20428;-49
2023/02/25 08:31:01;;;;;;;12.25;2.33;;;;;;;3.49;100.00;100809.38;5117304;28;20443;-51
2023/02/25 08:33:29;;;;;;;15.25;2.03;;;;;;;3.52;100.00;100812.72;5116917;28;20440;-46
2023/02/25 08:36:08;;;;;;;11.30;2.70;;;;;;;3.53;100.00;100814.44;5117170;27;20059;-50
2023/02/25 08:38:38;;;;;;;10.25;1.48;;;;;;;3.60;100.00;100822.00;5132111;27;20050;-47
2023/02/25 08:41:07;;;;;;;11.25;1.70;;;;;;;3.60;100.00;100822.00;5123450;27;20039;-50
2023/02/25 08:43:36;;;;;;;9.85;1.25;;;;;;;3.66;100.00;100817.44;5126433;27;20062;-47
2023/02/25 08:46:05;;;;;;;7.70;1.13;;;;;;;3.61;100.00;100821.94;5133772;27;20646;-51
2023/02/25 08:48:37;;;;;;;9.77;1.20;;;;;;;3.53;100.00;100822.25;5134245;27;20054;-51
2023/02/25 08:51:07;;;;;;;7.50;1.30;;;;;;;3.62;100.00;100826.25;5135007;27;20035;-48
2023/02/25 08:53:37;;;;;;;6.30;1.35;;;;;;;3.64;100.00;100831.38;5132922;27;20043;-49
2023/02/25 08:56:07;;;;;;;11.10;1.65;;;;;;;3.60;100.00;100832.41;5133582;27;20057;-51
2023/02/25 08:58:36;;;;;;;5.05;1.48;;;;;;;3.53;100.00;100845.66;5133579;27;20035;-46
2023/02/25 09:01:07;;;;;;;4.95;1.08;;;;;;;3.55;100.00;100859.44;5133102;27;20050;-46
2023/02/25 09:03:36;;;;;;;5.03;0.93;;;;;;;3.51;100.00;100865.63;5131902;27;20047;-47
2023/02/25 09:06:04;;;;;;;7.80;1.00;;;;;;;3.54;100.00;100869.88;5120451;27;20100;-46
2023/02/25 09:08:32;;;;;;;4.25;0.82;;;;;;;3.48;100.00;100883.13;5114880;28;20069;-47
2023/02/25 09:11:04;;;;;;;5.10;0.70;;;;;;;3.32;100.00;100893.19;5113361;28;20509;-47
2023/02/25 09:13:34;;;;;;;2.70;0.60;;;;;;;3.25;100.00;100868.31;5113492;27;20097;-49
2023/02/25 09:16:02;;;;;;;2.88;0.60;;;;;;;3.25;100.00;100873.50;5131760;27;20463;-50
2023/02/25 09:18:30;;;;;;;2.22;0.82;;;;;;;3.33;100.00;100881.91;5134676;27;20420;-49
2023/02/25 09:20:58;;;;;;;8.00;2.15;;;;;;;3.35;100.00;100887.88;5131794;27;20133;-51
2023/02/25 09:23:27;;;;;;;3.75;0.85;;;;;;;3.38;100.00;100892.97;5131821;27;20050;-48
2023/02/25 09:25:55;;;;;;;7.30;1.00;;;;;;;3.47;100.00;100891.81;5133473;27;20043;-48
2023/02/25 09:28:23;;;;;;;5.20;0.90;;;;;;;3.68;100.00;100892.81;5133119;27;20490;-47
2023/02/25 09:30:52;;;;;;;4.82;0.93;;;;;;;3.98;100.00;100884.78;5130948;27;20431;-46
2023/02/25 09:33:21;;;;;;;4.70;0.88;;;;;;;4.10;100.00;100883.50;5132834;27;20054;-48
2023/02/25 09:35:52;;;;;;;5.40;0.80;;;;;;;4.11;100.00;100893.84;5135834;27;20043;-47
2023/02/25 09:38:20;;;;;;;3.72;0.90;;;;;;;4.15;100.00;100903.25;5132625;27;20075;-47
2023/02/25 09:40:49;;;;;;;2.92;0.90;;;;;;;4.27;100.00;100921.91;5133255;27;20050;-47
2023/02/25 09:43:24;;;;;;;3.90;1.23;;;;;;;4.30;100.00;100919.19;5131982;27;20043;-47
2023/02/25 09:46:04;;;;;;;3.88;0.80;;;;;;;4.35;100.00;100919.84;5129461;27;20512;-47
2023/02/25 09:48:35;;;;;;;5.00;0.70;;;;;;;4.39;100.00;100922.31;5133776;27;20043;-47
2023/02/25 09:51:11;;;;;;;3.45;0.70;;;;;;;4.51;100.00;100930.53;5118602;27;20058;-48
2023/02/25 09:53:46;;;;;;;17.70;2.70;;;;;;;4.69;100.00;100926.38;5112222;28;20043;-48
2023/02/25 09:56:18;;;;;;;5.53;1.17;;;;;;;4.79;100.00;100934.69;5131145;27;20071;-47
2023/02/25 09:58:51;;;;;;;5.18;0.85;;;;;;;4.88;100.00;100940.38;5135182;27;20051;-49
2023/02/25 10:01:33;;;;;;;4.85;0.90;;;;;;;4.78;100.00;100962.50;5115034;27;20071;-48
2023/02/25 10:04:08;;;;;;;4.40;0.70;;;;;;;4.47;100.00;100958.47;5120796;27;20051;-49
2023/02/25 10:06:39;;;;;;;5.13;1.10;;;;;;;4.29;100.00;100960.00;5124976;27;20045;-50
2023/02/25 10:09:21;;;;;;;3.22;0.98;;;;;;;4.17;100.00;100953.50;5134971;27;20505;-48
2023/02/25 10:11:53;;;;;;;5.97;1.10;;;;;;;4.13;100.00;100951.06;5128760;27;20444;-50
2023/02/25 10:14:36;;;;;;;5.50;1.10;;;;;;;4.08;100.00;100959.03;5115181;28;20466;-50
2023/02/25 10:17:17;;;;;;;3.03;0.90;;;;;;;4.33;100.00;100963.34;5114831;28;20857;-52
2023/02/25 10:20:00;;;;;;;3.20;0.88;;;;;;;4.82;100.00;100961.47;5115309;27;20088;-49
2023/02/25 10:22:36;;;;;;;;;;;;;;;5.22;100.00;100959.88;5131692;27;20055;-47
2023/02/25 10:25:13;;;;;;;5.45;1.17;;;;;;;5.49;100.00;100962.25;5132267;27;20342;-51
2023/02/25 10:27:48;;;;;;;6.03;1.00;;;;;;;5.76;100.00;100959.38;5131404;27;20043;-50
2023/02/25 10:30:19;;;;;;;3.00;0.80;;;;;;;6.17;100.00;100972.41;5131502;27;20104;-46
2023/02/25 10:32:49;;;;;;;5.53;0.90;;;;;;;6.25;100.00;100972.91;5131557;27;20506;-47
2023/02/25 10:35:23;;;;;;;6.57;1.30;;;;;;;6.24;100.00;100971.25;5129514;27;20050;-47
2023/02/25 10:37:52;;;;;;;4.10;1.00;;;;;;;6.74;100.00;100979.44;5130435;27;20032;-47
2023/02/25 10:40:23;;;;;;;8.35;1.10;;;;;;;6.77;100.00;100989.75;5131400;27;20051;-47
2023/02/25 10:42:54;;;;;;;7.38;1.83;;;;;;;6.50;100.00;100971.78;5131366;27;20042;-48
2023/02/25 10:45:26;;;;;;;30.98;3.25;;;;;;;6.16;100.00;100968.13;5130260;27;20074;-46
2023/02/25 10:48:05;;;;;;;6.65;1.08;;;;;;;5.86;100.00;101002.47;5130683;27;20050;-47
2023/02/25 10:50:34;;;;;;;3.80;0.80;;;;;;;5.45;100.00;101018.06;5134690;27;20397;-49
2023/02/25 10:53:15;;;;;;;5.22;1.20;;;;;;;4.82;100.00;101029.22;5130806;27;20083;-49
2023/02/25 10:55:51;;;;;;;6.53;1.08;;;;;;;4.73;100.00;101034.78;5130582;27;20104;-50
2023/02/25 10:58:26;;;;;;;5.57;1.13;;;;;;;4.36;100.00;101036.13;5131358;27;20375;-47
2023/02/25 11:01:01;;;;;;;4.05;1.08;;;;;;;4.27;100.00;101023.44;5131044;27;20072;-49
2023/02/25 11:03:33;;;;;;;3.97;1.00;;;;;;;4.39;100.00;101015.19;5129341;27;20149;-47
2023/02/25 11:06:10;;;;;;;5.18;1.10;;;;;;;4.54;100.00;101008.56;5129687;27;20035;-47
2023/02/25 11:08:38;;;;;;;5.15;0.90;;;;;;;4.60;100.00;101010.97;5129160;27;20043;-47
2023/02/25 11:11:16;;;;;;;5.75;1.08;;;;;;;4.74;100.00;101010.44;5111969;27;20105;-46
2023/02/25 11:13:58;;;;;;;7.28;1.08;;;;;;;4.79;100.00;101013.72;5110252;28;20044;-48
2023/02/25 11:16:28;;;;;;;7.30;1.10;;;;;;;4.67;100.00;101017.63;5122098;27;20039;-48
2023/02/25 11:19:01;;;;;;;4.28;1.00;;;;;;;4.66;100.00;101015.94;5130618;27;20046;-49
2023/02/25 11:21:31;;;;;;;;;;;;;;;4.95;100.00;101018.31;5129272;27;20050;-48
2023/02/25 11:24:05;;;;;;;8.20;1.35;;;;;;;5.30;100.00;101022.16;5131323;27;19927;-49
2023/02/25 11:26:36;;;;;;;6.25;1.13;;;;;;;5.96;100.00;101015.97;5134055;27;20463;-49
2023/02/25 11:29:10;;;;;;;4.35;1.40;;;;;;;6.62;100.00;101016.59;5134205;27;20104;-47
2023/02/25 11:31:40;;;;;;;4.22;0.93;;;;;;;7.15;100.00;101018.44;5132811;27;20043;-51
2023/02/25 11:34:19;;;;;;;8.02;1.17;;;;;;;7.17;100.00;101018.38;5133938;27;20047;-52
2023/02/25 11:36:51;;;;;;;6.38;0.93;;;;;;;7.55;100.00;101015.66;5134272;27;20051;-49
2023/02/25 11:39:21;;;;;;;8.73;1.42;;;;;;;7.59;100.00;101017.19;5132445;27;20116;-49